sensor_id;sensor_type;location;lat;lon;timestamp;pressure;altitude;pressure_sealevel;temperature;humidity
46946;BME280;32679;40.810;14.498;2023-03-01T00:01:59;99873.88;;;9.02;100.00
46946;BME280;32679;40.810;14.498;2023-03-01T00:04:25;99861.75;;;9.10;100.00
46946;BME280;32679;40.810;14.498;2023-03-01T00:06:50;99870.28;;;9.17;100.00
46946;BME280;32679;40.810;14.498;2023-03-01T00:09:17;99879.84;;;9.04;100.00
46946;BME280;32679;40.810;14.498;2023-03-01T00:11:43;99888.28;;;9.07;100.00
46946;BME280;32679;40.810;14.498;2023-03-01T00:14:08;99888.19;;;9.04;100.00
46946;BME280;32679;40.810;14.498;2023-03-01T00:16:37;99882.47;;;8.97;100.00
46946;BME280;32679;40.810;14.498;2023-03-01T00:19:11;99882.91;;;8.99;100.00
46946;BME280;32679;40.810;14.498;2023-03-01T00:21:37;99887.22;;;8.96;100.00
46946;BME280;32679;40.810;14.498;2023-03-01T00:24:03;99895.16;;;8.98;100.00
46946;BME280;32679;40.810;14.498;2023-03-01T00:26:28;99890.31;;;8.95;100.00
46946;BME280;32679;40.810;14.498;2023-03-01T00:28:54;99890.88;;;8.84;100.00
46946;BME280;32679;40.810;14.498;2023-03-01T00:31:28;99887.66;;;8.82;100.00
46946;BME280;32679;40.810;14.498;2023-03-01T00:34:00;99889.88;;;8.77;100.00
46946;BME280;32679;40.810;14.498;2023-03-01T00:36:29;99889.78;;;8.73;100.00
46946;BME280;32679;40.810;14.498;2023-03-01T00:38:55;99911.56;;;8.87;100.00
46946;BME280;32679;40.810;14.498;2023-03-01T00:41:21;99917.19;;;8.90;100.00
46946;BME280;32679;40.810;14.498;2023-03-01T00:43:52;99910.47;;;8.76;100.00
46946;BME280;32679;40.810;14.498;2023-03-01T00:46:21;99915.75;;;8.65;100.00
46946;BME280;32679;40.810;14.498;2023-03-01T00:48:47;99907.59;;;8.28;100.00
46946;BME280;32679;40.810;14.498;2023-03-01T00:51:19;99909.19;;;8.42;100.00
46946;BME280;32679;40.810;14.498;2023-03-01T00:53:45;99923.84;;;8.42;100.00
46946;BME280;32679;40.810;14.498;2023-03-01T00:56:12;99924.59;;;8.27;100.00
46946;BME280;32679;40.810;14.498;2023-03-01T00:58:39;99931.34;;;8.13;100.00
46946;BME280;32679;40.810;14.498;2023-03-01T01:01:09;99938.94;;;8.17;100.00
46946;BME280;32679;40.810;14.498;2023-03-01T01:03:50;99928.91;;;8.12;100.00
46946;BME280;32679;40.810;14.498;2023-03-01T01:06:22;99927.81;;;8.01;100.00
46946;BME280;32679;40.810;14.498;2023-03-01T01:08:53;99939.44;;;8.06;100.00
46946;BME280;32679;40.810;14.498;2023-03-01T01:11:20;99926.50;;;7.70;100.00
46946;BME280;32679;40.810;14.498;2023-03-01T01:13:47;99922.13;;;7.69;100.00
46946;BME280;32679;40.810;14.498;2023-03-01T01:16:13;99920.84;;;7.67;100.00
46946;BME280;32679;40.810;14.498;2023-03-01T01:18:39;99925.72;;;7.70;100.00
46946;BME280;32679;40.810;14.498;2023-03-01T01:21:11;99925.94;;;7.65;100.00
46946;BME280;32679;40.810;14.498;2023-03-01T01:23:38;99937.84;;;7.53;100.00
46946;BME280;32679;40.810;14.498;2023-03-01T01:26:17;99933.94;;;7.29;100.00
46946;BME280;32679;40.810;14.498;2023-03-01T01:28:43;99933.72;;;7.22;100.00
46946;BME280;32679;40.810;14.498;2023-03-01T01:31:09;99926.22;;;7.11;100.00
46946;BME280;32679;40.810;14.498;2023-03-01T01:33:35;99945.25;;;7.12;100.00
46946;BME280;32679;40.810;14.498;2023-03-01T01:36:00;99939.72;;;7.12;100.00
46946;BME280;32679;40.810;14.498;2023-03-01T01:38:26;99928.41;;;7.05;100.00
46946;BME280;32679;40.810;14.498;2023-03-01T01:40:52;99933.03;;;6.89;100.00
46946;BME280;32679;40.810;14.498;2023-03-01T01:43:29;99921.75;;;6.94;100.00
46946;BME280;32679;40.810;14.498;2023-03-01T01:45:57;99919.09;;;7.09;100.00
46946;BME280;32679;40.810;14.498;2023-03-01T01:48:28;99906.25;;;7.29;100.00
46946;BME280;32679;40.810;14.498;2023-03-01T01:51:05;99883.69;;;7.27;100.00
46946;BME280;32679;40.810;14.498;2023-03-01T01:53:31;99866.03;;;7.07;100.00
46946;BME280;32679;40.810;14.498;2023-03-01T01:56:00;99836.91;;;6.61;100.00
46946;BME280;32679;40.810;14.498;2023-03-01T01:58:29;99880.56;;;6.55;100.00
46946;BME280;32679;40.810;14.498;2023-03-01T02:00:55;99881.38;;;6.68;100.00
46946;BME280;32679;40.810;14.498;2023-03-01T02:03:28;99872.50;;;6.63;100.00
46946;BME280;32679;40.810;14.498;2023-03-01T02:08:26;99863.53;;;6.78;100.00
46946;BME280;32679;40.810;14.498;2023-03-01T02:10:53;99850.97;;;6.68;100.00
46946;BME280;32679;40.810;14.498;2023-03-01T02:13:20;99822.84;;;6.78;100.00
46946;BME280;32679;40.810;14.498;2023-03-01T02:15:45;99811.22;;;6.73;100.00
46946;BME280;32679;40.810;14.498;2023-03-01T02:18:14;99799.13;;;6.65;100.00
46946;BME280;32679;40.810;14.498;2023-03-01T02:23:28;99798.53;;;6.84;100.00
46946;BME280;32679;40.810;14.498;2023-03-01T02:26:02;99799.00;;;6.86;100.00
46946;BME280;32679;40.810;14.498;2023-03-01T02:30:59;99798.31;;;6.89;100.00
46946;BME280;32679;40.810;14.498;2023-03-01T02:33:44;99793.38;;;6.82;100.00
46946;BME280;32679;40.810;14.498;2023-03-01T02:36:15;99790.59;;;6.70;100.00
46946;BME280;32679;40.810;14.498;2023-03-01T02:38:43;99776.09;;;6.73;100.00
46946;BME280;32679;40.810;14.498;2023-03-01T02:41:11;99788.41;;;6.76;100.00
46946;BME280;32679;40.810;14.498;2023-03-01T02:43:42;99784.16;;;6.78;100.00
46946;BME280;32679;40.810;14.498;2023-03-01T02:46:14;99756.72;;;6.73;100.00
46946;BME280;32679;40.810;14.498;2023-03-01T02:48:42;99777.91;;;6.94;100.00
46946;BME280;32679;40.810;14.498;2023-03-01T02:54:28;99785.25;;;7.02;100.00
46946;BME280;32679;40.810;14.498;2023-03-01T02:56:57;99778.47;;;6.99;100.00
46946;BME280;32679;40.810;14.498;2023-03-01T02:59:28;99789.66;;;6.91;100.00
46946;BME280;32679;40.810;14.498;2023-03-01T03:01:54;99794.84;;;7.04;100.00
46946;BME280;32679;40.810;14.498;2023-03-01T03:04:22;99786.53;;;6.92;100.00
46946;BME280;32679;40.810;14.498;2023-03-01T03:06:49;99796.44;;;7.05;100.00
46946;BME280;32679;40.810;14.498;2023-03-01T03:09:16;99798.66;;;7.00;100.00
46946;BME280;32679;40.810;14.498;2023-03-01T03:11:42;99796.31;;;7.02;100.00
46946;BME280;32679;40.810;14.498;2023-03-01T03:14:10;99803.91;;;7.17;100.00
46946;BME280;32679;40.810;14.498;2023-03-01T03:16:55;99792.94;;;7.21;100.00
46946;BME280;32679;40.810;14.498;2023-03-01T03:19:21;99801.69;;;7.23;100.00
46946;BME280;32679;40.810;14.498;2023-03-01T03:21:47;99802.50;;;7.23;100.00
46946;BME280;32679;40.810;14.498;2023-03-01T03:24:12;99803.53;;;7.31;100.00
46946;BME280;32679;40.810;14.498;2023-03-01T03:26:38;99799.25;;;7.33;100.00
46946;BME280;32679;40.810;14.498;2023-03-01T03:29:03;99806.16;;;7.40;100.00
46946;BME280;32679;40.810;14.498;2023-03-01T03:31:29;99801.22;;;7.33;100.00
46946;BME280;32679;40.810;14.498;2023-03-01T03:33:54;99800.66;;;7.27;100.00
46946;BME280;32679;40.810;14.498;2023-03-01T03:36:23;99797.69;;;7.20;100.00
46946;BME280;32679;40.810;14.498;2023-03-01T03:38:49;99791.22;;;7.16;100.00
46946;BME280;32679;40.810;14.498;2023-03-01T03:41:15;99796.75;;;7.16;100.00
46946;BME280;32679;40.810;14.498;2023-03-01T03:43:41;99797.38;;;7.09;100.00
46946;BME280;32679;40.810;14.498;2023-03-01T03:46:09;99796.75;;;7.16;100.00
46946;BME280;32679;40.810;14.498;2023-03-01T03:48:40;99791.00;;;7.21;100.00
46946;BME280;32679;40.810;14.498;2023-03-01T03:51:09;99795.16;;;7.03;100.00
46946;BME280;32679;40.810;14.498;2023-03-01T03:53:35;99789.88;;;7.10;100.00
46946;BME280;32679;40.810;14.498;2023-03-01T03:56:04;99790.53;;;7.19;100.00
46946;BME280;32679;40.810;14.498;2023-03-01T03:58:29;99788.28;;;7.37;100.00
46946;BME280;32679;40.810;14.498;2023-03-01T04:00:56;99708.78;;;6.81;100.00
46946;BME280;32679;40.810;14.498;2023-03-01T04:03:26;99789.59;;;7.27;100.00
46946;BME280;32679;40.810;14.498;2023-03-01T04:05:52;99778.06;;;7.25;100.00
46946;BME280;32679;40.810;14.498;2023-03-01T04:08:19;99754.50;;;7.03;100.00
46946;BME280;32679;40.810;14.498;2023-03-01T04:10:50;99768.91;;;7.09;100.00
46946;BME280;32679;40.810;14.498;2023-03-01T04:13:21;99773.47;;;7.17;100.00
46946;BME280;32679;40.810;14.498;2023-03-01T04:15:51;99777.50;;;7.20;100.00
46946;BME280;32679;40.810;14.498;2023-03-01T04:18:18;99777.63;;;7.11;100.00
46946;BME280;32679;40.810;14.498;2023-03-01T04:20:46;99766.81;;;7.06;100.00
46946;BME280;32679;40.810;14.498;2023-03-01T04:23:17;99769.09;;;7.16;100.00
46946;BME280;32679;40.810;14.498;2023-03-01T04:28:10;99762.88;;;7.07;100.00
46946;BME280;32679;40.810;14.498;2023-03-01T04:30:39;99743.53;;;7.07;100.00
46946;BME280;32679;40.810;14.498;2023-03-01T04:33:06;99753.09;;;7.09;100.00
46946;BME280;32679;40.810;14.498;2023-03-01T04:35:36;99756.97;;;7.21;100.00
46946;BME280;32679;40.810;14.498;2023-03-01T04:38:02;99750.78;;;7.12;100.00
46946;BME280;32679;40.810;14.498;2023-03-01T04:40:28;99748.84;;;7.00;100.00
46946;BME280;32679;40.810;14.498;2023-03-01T04:42:53;99747.81;;;7.04;100.00
46946;BME280;32679;40.810;14.498;2023-03-01T04:45:22;99740.38;;;7.21;100.00
46946;BME280;32679;40.810;14.498;2023-03-01T04:47:48;99727.66;;;7.04;100.00
46946;BME280;32679;40.810;14.498;2023-03-01T04:50:16;99732.00;;;7.05;100.00
46946;BME280;32679;40.810;14.498;2023-03-01T04:52:44;99724.72;;;7.13;100.00
46946;BME280;32679;40.810;14.498;2023-03-01T04:55:10;99723.25;;;7.03;100.00
46946;BME280;32679;40.810;14.498;2023-03-01T04:57:36;99730.72;;;7.02;100.00
46946;BME280;32679;40.810;14.498;2023-03-01T05:00:03;99732.06;;;6.93;100.00
46946;BME280;32679;40.810;14.498;2023-03-01T05:02:52;99744.00;;;6.97;100.00
46946;BME280;32679;40.810;14.498;2023-03-01T05:05:27;99731.50;;;6.87;100.00
46946;BME280;32679;40.810;14.498;2023-03-01T05:07:58;99730.34;;;6.88;100.00
46946;BME280;32679;40.810;14.498;2023-03-01T05:10:25;99727.22;;;6.90;100.00
46946;BME280;32679;40.810;14.498;2023-03-01T05:12:54;99733.22;;;6.79;100.00
46946;BME280;32679;40.810;14.498;2023-03-01T05:15:20;99734.38;;;6.78;100.00
46946;BME280;32679;40.810;14.498;2023-03-01T05:17:51;99731.38;;;6.83;100.00
46946;BME280;32679;40.810;14.498;2023-03-01T05:20:16;99732.63;;;6.86;100.00
46946;BME280;32679;40.810;14.498;2023-03-01T05:22:42;99723.56;;;6.73;100.00
46946;BME280;32679;40.810;14.498;2023-03-01T05:25:08;99722.75;;;6.73;100.00
46946;BME280;32679;40.810;14.498;2023-03-01T05:27:34;99719.19;;;6.72;100.00
46946;BME280;32679;40.810;14.498;2023-03-01T05:30:00;99715.50;;;6.68;100.00
46946;BME280;32679;40.810;14.498;2023-03-01T05:32:39;99708.81;;;6.69;100.00
46946;BME280;32679;40.810;14.498;2023-03-01T05:35:05;99711.38;;;6.62;100.00
46946;BME280;32679;40.810;14.498;2023-03-01T05:37:31;99709.84;;;6.65;100.00
46946;BME280;32679;40.810;14.498;2023-03-01T05:39:56;99704.91;;;6.58;100.00
46946;BME280;32679;40.810;14.498;2023-03-01T05:42:25;99711.25;;;6.59;100.00
46946;BME280;32679;40.810;14.498;2023-03-01T05:44:50;99707.91;;;6.53;100.00
46946;BME280;32679;40.810;14.498;2023-03-01T05:47:19;99708.03;;;6.56;100.00
46946;BME280;32679;40.810;14.498;2023-03-01T05:49:46;99711.44;;;6.66;100.00
46946;BME280;32679;40.810;14.498;2023-03-01T05:52:11;99718.72;;;6.70;100.00
46946;BME280;32679;40.810;14.498;2023-03-01T05:54:37;99712.84;;;6.60;100.00
46946;BME280;32679;40.810;14.498;2023-03-01T05:57:05;99717.56;;;6.59;100.00
46946;BME280;32679;40.810;14.498;2023-03-01T05:59:30;99719.16;;;6.85;100.00
46946;BME280;32679;40.810;14.498;2023-03-01T06:01:56;99722.31;;;7.39;100.00
46946;BME280;32679;40.810;14.498;2023-03-01T06:04:21;99724.66;;;8.12;100.00
46946;BME280;32679;40.810;14.498;2023-03-01T06:06:47;99729.97;;;8.84;100.00
46946;BME280;32679;40.810;14.498;2023-03-01T06:09:12;99731.25;;;9.45;96.35
46946;BME280;32679;40.810;14.498;2023-03-01T06:11:38;99726.97;;;10.13;93.38
46946;BME280;32679;40.810;14.498;2023-03-01T06:14:04;99735.28;;;10.85;88.56
46946;BME280;32679;40.810;14.498;2023-03-01T06:16:29;99735.75;;;11.51;83.88
46946;BME280;32679;40.810;14.498;2023-03-01T06:18:55;99734.06;;;12.14;80.83
46946;BME280;32679;40.810;14.498;2023-03-01T06:21:20;99750.16;;;12.79;75.72
46946;BME280;32679;40.810;14.498;2023-03-01T06:23:46;99755.22;;;13.21;70.69
46946;BME280;32679;40.810;14.498;2023-03-01T06:26:11;99764.97;;;13.59;67.50
46946;BME280;32679;40.810;14.498;2023-03-01T06:28:37;99762.59;;;13.69;61.26
46946;BME280;32679;40.810;14.498;2023-03-01T06:31:02;99766.75;;;14.39;59.14
46946;BME280;32679;40.810;14.498;2023-03-01T06:33:28;99759.59;;;14.77;56.78
46946;BME280;32679;40.810;14.498;2023-03-01T06:35:56;99765.09;;;15.27;57.86
46946;BME280;32679;40.810;14.498;2023-03-01T06:38:23;99763.00;;;15.63;54.39
46946;BME280;32679;40.810;14.498;2023-03-01T06:40:53;99755.31;;;15.78;52.70
46946;BME280;32679;40.810;14.498;2023-03-01T06:43:19;99757.59;;;15.97;52.22
46946;BME280;32679;40.810;14.498;2023-03-01T06:45:45;99767.16;;;16.11;52.35
46946;BME280;32679;40.810;14.498;2023-03-01T06:48:10;99766.94;;;16.43;51.40
46946;BME280;32679;40.810;14.498;2023-03-01T06:50:36;99775.13;;;16.71;50.14
46946;BME280;32679;40.810;14.498;2023-03-01T06:53:05;99784.06;;;17.04;50.48
46946;BME280;32679;40.810;14.498;2023-03-01T06:55:31;99775.94;;;17.17;49.97
46946;BME280;32679;40.810;14.498;2023-03-01T06:57:58;99775.28;;;17.36;49.20
46946;BME280;32679;40.810;14.498;2023-03-01T07:00:25;99781.91;;;17.19;48.22
46946;BME280;32679;40.810;14.498;2023-03-01T07:02:51;99778.06;;;17.43;47.75
46946;BME280;32679;40.810;14.498;2023-03-01T07:05:16;99790.09;;;17.44;46.58
46946;BME280;32679;40.810;14.498;2023-03-01T07:07:42;99772.78;;;17.45;43.81
46946;BME280;32679;40.810;14.498;2023-03-01T07:10:08;99786.97;;;18.03;43.92
46946;BME280;32679;40.810;14.498;2023-03-01T07:12:34;99796.03;;;18.18;42.58
46946;BME280;32679;40.810;14.498;2023-03-01T07:15:00;99794.28;;;17.97;42.67
46946;BME280;32679;40.810;14.498;2023-03-01T07:17:25;99791.19;;;16.71;45.89
46946;BME280;32679;40.810;14.498;2023-03-01T07:19:50;99794.00;;;17.53;42.94
46946;BME280;32679;40.810;14.498;2023-03-01T07:22:16;99796.97;;;16.98;44.60
46946;BME280;32679;40.810;14.498;2023-03-01T07:24:42;99807.97;;;16.22;46.40
46946;BME280;32679;40.810;14.498;2023-03-01T07:27:08;99801.13;;;15.29;47.14
46946;BME280;32679;40.810;14.498;2023-03-01T07:29:33;99799.03;;;15.61;47.28
46946;BME280;32679;40.810;14.498;2023-03-01T07:32:02;99805.81;;;15.71;48.33
46946;BME280;32679;40.810;14.498;2023-03-01T07:34:30;99804.34;;;15.16;49.22
46946;BME280;32679;40.810;14.498;2023-03-01T07:36:55;99801.41;;;16.43;47.67
46946;BME280;32679;40.810;14.498;2023-03-01T07:39:21;99793.69;;;15.99;47.06
46946;BME280;32679;40.810;14.498;2023-03-01T07:41:48;99795.09;;;15.37;49.43
46946;BME280;32679;40.810;14.498;2023-03-01T07:44:14;99801.13;;;15.29;48.46
46946;BME280;32679;40.810;14.498;2023-03-01T07:46:40;99801.09;;;15.32;49.81
46946;BME280;32679;40.810;14.498;2023-03-01T07:49:06;99805.13;;;15.35;48.35
46946;BME280;32679;40.810;14.498;2023-03-01T07:51:31;99798.22;;;15.57;48.75
46946;BME280;32679;40.810;14.498;2023-03-01T07:53:57;99807.28;;;16.01;48.11
46946;BME280;32679;40.810;14.498;2023-03-01T07:56:23;99784.16;;;15.79;47.83
46946;BME280;32679;40.810;14.498;2023-03-01T07:58:48;99807.97;;;16.82;47.68
46946;BME280;32679;40.810;14.498;2023-03-01T08:01:17;99816.72;;;16.35;48.43
46946;BME280;32679;40.810;14.498;2023-03-01T08:03:43;99808.31;;;16.35;46.68
46946;BME280;32679;40.810;14.498;2023-03-01T08:06:10;99810.63;;;16.47;47.25
46946;BME280;32679;40.810;14.498;2023-03-01T08:08:36;99811.91;;;16.88;46.38
46946;BME280;32679;40.810;14.498;2023-03-01T08:11:06;99801.63;;;16.11;48.04
46946;BME280;32679;40.810;14.498;2023-03-01T08:13:32;99808.03;;;16.08;47.77
46946;BME280;32679;40.810;14.498;2023-03-01T08:16:03;99797.59;;;16.12;48.89
46946;BME280;32679;40.810;14.498;2023-03-01T08:18:29;99809.66;;;16.09;47.00
46946;BME280;32679;40.810;14.498;2023-03-01T08:20:54;99804.84;;;16.10;46.49
46946;BME280;32679;40.810;14.498;2023-03-01T08:23:20;99806.31;;;16.29;46.01
46946;BME280;32679;40.810;14.498;2023-03-01T08:25:45;99799.22;;;16.10;47.00
46946;BME280;32679;40.810;14.498;2023-03-01T08:28:11;99807.53;;;16.31;47.46
46946;BME280;32679;40.810;14.498;2023-03-01T08:30:36;99802.06;;;17.14;45.54
46946;BME280;32679;40.810;14.498;2023-03-01T08:33:02;99810.66;;;17.71;45.06
46946;BME280;32679;40.810;14.498;2023-03-01T08:35:27;99800.34;;;17.23;43.46
46946;BME280;32679;40.810;14.498;2023-03-01T08:37:55;99805.56;;;16.24;45.69
46946;BME280;32679;40.810;14.498;2023-03-01T08:40:20;99812.13;;;16.59;45.52
46946;BME280;32679;40.810;14.498;2023-03-01T08:42:46;99808.31;;;16.87;46.20
46946;BME280;32679;40.810;14.498;2023-03-01T08:45:12;99805.28;;;16.64;44.21
46946;BME280;32679;40.810;14.498;2023-03-01T08:47:39;99813.50;;;16.37;47.23
46946;BME280;32679;40.810;14.498;2023-03-01T08:50:08;99815.38;;;15.88;47.39
46946;BME280;32679;40.810;14.498;2023-03-01T08:52:36;99820.66;;;16.45;47.65
46946;BME280;32679;40.810;14.498;2023-03-01T08:55:02;99808.69;;;16.34;47.09
46946;BME280;32679;40.810;14.498;2023-03-01T08:57:27;99808.06;;;16.71;44.78
46946;BME280;32679;40.810;14.498;2023-03-01T08:59:53;99814.44;;;17.20;43.63
46946;BME280;32679;40.810;14.498;2023-03-01T09:02:21;99810.09;;;18.18;42.18
46946;BME280;32679;40.810;14.498;2023-03-01T09:04:47;99808.84;;;19.23;40.56
46946;BME280;32679;40.810;14.498;2023-03-01T09:07:12;99807.53;;;19.71;38.87
46946;BME280;32679;40.810;14.498;2023-03-01T09:09:37;99807.25;;;19.42;37.34
46946;BME280;32679;40.810;14.498;2023-03-01T09:12:03;99798.41;;;19.83;35.75
46946;BME280;32679;40.810;14.498;2023-03-01T09:14:29;99814.81;;;19.69;33.75
46946;BME280;32679;40.810;14.498;2023-03-01T09:16:58;99806.41;;;19.45;35.73
46946;BME280;32679;40.810;14.498;2023-03-01T09:19:28;99811.22;;;19.68;35.66
46946;BME280;32679;40.810;14.498;2023-03-01T09:21:53;99812.84;;;19.22;35.61
46946;BME280;32679;40.810;14.498;2023-03-01T09:24:22;99805.06;;;19.30;35.80
46946;BME280;32679;40.810;14.498;2023-03-01T09:26:49;99795.75;;;19.53;35.76
46946;BME280;32679;40.810;14.498;2023-03-01T09:29:15;99813.97;;;19.48;35.76
46946;BME280;32679;40.810;14.498;2023-03-01T09:31:41;99808.38;;;19.25;34.87
46946;BME280;32679;40.810;14.498;2023-03-01T09:34:07;99804.41;;;18.99;35.21
46946;BME280;32679;40.810;14.498;2023-03-01T09:36:33;99803.38;;;19.76;35.11
46946;BME280;32679;40.810;14.498;2023-03-01T09:39:00;99803.31;;;19.79;35.58
46946;BME280;32679;40.810;14.498;2023-03-01T09:44:00;99803.72;;;19.58;35.70
46946;BME280;32679;40.810;14.498;2023-03-01T09:46:32;99798.22;;;19.51;36.62
46946;BME280;32679;40.810;14.498;2023-03-01T09:49:04;99803.47;;;19.72;35.03
46946;BME280;32679;40.810;14.498;2023-03-01T09:51:35;99798.84;;;19.62;36.26
46946;BME280;32679;40.810;14.498;2023-03-01T09:54:02;99799.56;;;20.58;35.07
46946;BME280;32679;40.810;14.498;2023-03-01T09:56:41;99800.97;;;19.34;35.55
46946;BME280;32679;40.810;14.498;2023-03-01T10:09:40;99810.13;;;18.14;38.01
46946;BME280;32679;40.810;14.498;2023-03-01T10:12:12;99805.38;;;18.38;36.86
46946;BME280;32679;40.810;14.498;2023-03-01T10:14:48;99796.94;;;18.89;37.57
46946;BME280;32679;40.810;14.498;2023-03-01T10:17:33;99797.44;;;19.07;35.20
46946;BME280;32679;40.810;14.498;2023-03-01T10:20:23;99792.84;;;18.70;36.20
46946;BME280;32679;40.810;14.498;2023-03-01T10:22:49;99797.97;;;19.22;34.86
46946;BME280;32679;40.810;14.498;2023-03-01T10:28:31;99795.78;;;20.29;32.43
46946;BME280;32679;40.810;14.498;2023-03-01T10:31:02;99788.56;;;20.08;30.87
46946;BME280;32679;40.810;14.498;2023-03-01T10:33:37;99794.56;;;19.94;31.96
46946;BME280;32679;40.810;14.498;2023-03-01T10:36:05;99789.25;;;19.56;31.10
46946;BME280;32679;40.810;14.498;2023-03-01T10:38:47;99789.19;;;19.59;32.33
46946;BME280;32679;40.810;14.498;2023-03-01T10:41:15;99779.88;;;18.49;33.15
46946;BME280;32679;40.810;14.498;2023-03-01T10:43:48;99780.25;;;18.74;33.75
46946;BME280;32679;40.810;14.498;2023-03-01T10:46:34;99781.63;;;18.90;34.03
46946;BME280;32679;40.810;14.498;2023-03-01T10:49:14;99784.31;;;18.73;32.33
46946;BME280;32679;40.810;14.498;2023-03-01T10:51:42;99783.66;;;18.39;33.09
46946;BME280;32679;40.810;14.498;2023-03-01T10:54:20;99775.13;;;18.93;32.75
46946;BME280;32679;40.810;14.498;2023-03-01T10:56:55;99789.59;;;18.17;34.46
46946;BME280;32679;40.810;14.498;2023-03-01T10:59:34;99788.41;;;17.84;36.10
46946;BME280;32679;40.810;14.498;2023-03-01T11:04:34;99789.91;;;17.24;36.42
46946;BME280;32679;40.810;14.498;2023-03-01T11:07:02;99785.63;;;16.01;38.38
46946;BME280;32679;40.810;14.498;2023-03-01T11:09:33;99789.81;;;15.64;39.83
46946;BME280;32679;40.810;14.498;2023-03-01T11:12:14;99782.72;;;15.20;40.62
46946;BME280;32679;40.810;14.498;2023-03-01T11:14:47;99785.09;;;15.40;41.30
46946;BME280;32679;40.810;14.498;2023-03-01T11:17:31;99771.09;;;15.26;42.40
46946;BME280;32679;40.810;14.498;2023-03-01T11:22:47;99763.59;;;14.62;43.56
46946;BME280;32679;40.810;14.498;2023-03-01T11:25:13;99766.34;;;14.33;43.46
46946;BME280;32679;40.810;14.498;2023-03-01T11:27:43;99756.00;;;14.62;43.13
46946;BME280;32679;40.810;14.498;2023-03-01T11:30:32;99762.78;;;14.61;43.53
46946;BME280;32679;40.810;14.498;2023-03-01T11:33:20;99752.75;;;14.42;43.71
46946;BME280;32679;40.810;14.498;2023-03-01T11:38:27;99741.97;;;14.48;43.91
46946;BME280;32679;40.810;14.498;2023-03-01T11:41:08;99738.72;;;14.10;44.91
46946;BME280;32679;40.810;14.498;2023-03-01T11:43:40;99755.53;;;14.21;46.51
46946;BME280;32679;40.810;14.498;2023-03-01T11:52:52;99753.16;;;14.91;45.07
46946;BME280;32679;40.810;14.498;2023-03-01T12:06:12;99722.78;;;14.72;42.43
46946;BME280;32679;40.810;14.498;2023-03-01T12:09:17;99731.53;;;15.02;41.54
46946;BME280;32679;40.810;14.498;2023-03-01T12:17:24;99731.19;;;14.72;44.43
46946;BME280;32679;40.810;14.498;2023-03-01T12:20:12;99721.59;;;14.65;44.35
46946;BME280;32679;40.810;14.498;2023-03-01T12:26:17;99725.19;;;14.66;43.58
46946;BME280;32679;40.810;14.498;2023-03-01T12:28:55;99725.19;;;14.59;43.51
46946;BME280;32679;40.810;14.498;2023-03-01T12:31:34;99730.00;;;14.65;43.45
46946;BME280;32679;40.810;14.498;2023-03-01T12:34:15;99733.16;;;14.35;44.11
46946;BME280;32679;40.810;14.498;2023-03-01T12:45:34;99718.00;;;14.33;46.44
46946;BME280;32679;40.810;14.498;2023-03-01T12:48:13;99723.59;;;14.76;44.39
46946;BME280;32679;40.810;14.498;2023-03-01T12:50:48;99697.84;;;15.24;43.59
46946;BME280;32679;40.810;14.498;2023-03-01T12:55:48;99705.75;;;15.43;42.42
46946;BME280;32679;40.810;14.498;2023-03-01T13:11:48;99704.78;;;16.41;38.82
46946;BME280;32679;40.810;14.498;2023-03-01T13:16:53;99701.91;;;16.48;38.97
46946;BME280;32679;40.810;14.498;2023-03-01T13:19:23;99703.16;;;16.40;39.52
46946;BME280;32679;40.810;14.498;2023-03-01T13:21:51;99694.38;;;16.38;39.07
46946;BME280;32679;40.810;14.498;2023-03-01T13:32:27;99698.22;;;16.99;36.84
46946;BME280;32679;40.810;14.498;2023-03-01T13:37:42;99693.63;;;16.79;36.56
46946;BME280;32679;40.810;14.498;2023-03-01T13:42:54;99676.00;;;16.74;36.19
46946;BME280;32679;40.810;14.498;2023-03-01T13:45:38;99680.16;;;16.07;39.28
46946;BME280;32679;40.810;14.498;2023-03-01T13:48:21;99669.09;;;16.38;42.33
46946;BME280;32679;40.810;14.498;2023-03-01T13:50:51;99680.41;;;17.10;42.54
46946;BME280;32679;40.810;14.498;2023-03-01T13:53:19;99682.47;;;17.40;41.76
46946;BME280;32679;40.810;14.498;2023-03-01T13:55:57;99691.88;;;17.57;41.52
46946;BME280;32679;40.810;14.498;2023-03-01T13:58:29;99688.47;;;16.73;41.45
46946;BME280;32679;40.810;14.498;2023-03-01T14:00:58;99686.34;;;16.85;41.40
46946;BME280;32679;40.810;14.498;2023-03-01T14:03:25;99687.25;;;16.74;41.83
46946;BME280;32679;40.810;14.498;2023-03-01T14:06:09;99680.13;;;16.59;43.01
46946;BME280;32679;40.810;14.498;2023-03-01T14:08:39;99689.38;;;17.01;42.39
46946;BME280;32679;40.810;14.498;2023-03-01T14:14:34;99687.84;;;16.93;42.55
46946;BME280;32679;40.810;14.498;2023-03-01T14:19:31;99683.50;;;17.22;40.50
46946;BME280;32679;40.810;14.498;2023-03-01T14:22:21;99673.56;;;17.45;39.56
46946;BME280;32679;40.810;14.498;2023-03-01T14:24:50;99671.47;;;17.52;39.38
46946;BME280;32679;40.810;14.498;2023-03-01T14:27:17;99672.72;;;17.17;38.76
46946;BME280;32679;40.810;14.498;2023-03-01T14:29:43;99662.50;;;16.55;38.86
46946;BME280;32679;40.810;14.498;2023-03-01T14:32:20;99681.19;;;17.14;39.29
46946;BME280;32679;40.810;14.498;2023-03-01T14:34:48;99676.31;;;16.39;39.04
46946;BME280;32679;40.810;14.498;2023-03-01T14:37:27;99673.69;;;16.14;39.30
46946;BME280;32679;40.810;14.498;2023-03-01T14:39:57;99671.72;;;16.11;38.88
46946;BME280;32679;40.810;14.498;2023-03-01T14:42:25;99676.53;;;16.10;38.96
46946;BME280;32679;40.810;14.498;2023-03-01T14:44:54;99661.31;;;16.11;39.67
46946;BME280;32679;40.810;14.498;2023-03-01T14:47:31;99678.00;;;15.77;39.48
46946;BME280;32679;40.810;14.498;2023-03-01T14:52:41;99681.59;;;15.70;40.00
46946;BME280;32679;40.810;14.498;2023-03-01T14:55:15;99674.03;;;15.67;40.02